gordon.dewis.ca
Rain rain go away!
It looks like we’re in for some (potentially) exciting weather today: TAF CYOW 241138Z 2412/2512 16008KT 6SM -SHRA BR SCT008 OVC015 TEMPO 2412/2414 4SM -SHRA BR BKN008 OVC015 FM241400 19010KT…